Time;durP1;ratioP1;P1;durP2;ratioP2;P2;SDS_P1;SDS_P2;PMS_P1;PMS_P2;Temp;Humidity;BMP_temperature;BMP_pressure;BME280_temperature;BME280_humidity;BME280_pressure;Samples;Min_cycle;Max_cycle;Signal;HPM_P1;HPM_P2
2022/02/15 00:02:16;;;;;;;;;2.00;2.00;;;;;20.69;35.57;100736.03;5076277;27;51320;-45
2022/02/15 00:04:42;;;;;;;;;3.75;2.50;;;;;20.68;35.06;100741.78;5093622;27;51186;-43
2022/02/15 00:07:07;;;;;;;;;3.00;3.00;;;;;20.66;35.18;100739.25;5078135;27;51037;-43
2022/02/15 00:09:33;;;;;;;;;1.00;1.00;;;;;20.65;35.43;100736.72;5076736;27;51695;-44
2022/02/15 00:11:58;;;;;;;;;2.75;2.75;;;;;20.63;35.12;100738.84;5078025;28;51015;-47
2022/02/15 00:14:24;;;;;;;;;5.50;2.50;;;;;20.61;35.05;100746.50;5077926;27;51282;-46
2022/02/15 00:16:50;;;;;;;;;3.50;3.00;;;;;20.60;35.39;100744.81;5077582;27;51400;-44
2022/02/15 00:19:17;;;;;;;;;4.50;3.00;;;;;20.58;35.37;100747.78;5077273;27;52666;-43
2022/02/15 00:21:43;;;;;;;;;3.00;2.50;;;;;20.57;35.02;100745.28;5093217;27;51116;-43
2022/02/15 00:24:08;;;;;;;;;4.00;3.50;;;;;20.55;35.47;100739.16;5077914;27;51286;-47
2022/02/15 00:26:33;;;;;;;;;2.00;2.00;;;;;20.55;35.24;100739.16;5077840;27;51115;-43
2022/02/15 00:29:01;;;;;;;;;1.25;1.25;;;;;20.53;35.45;100747.63;5077196;27;51828;-45
2022/02/15 00:31:26;;;;;;;;;3.50;2.50;;;;;20.52;35.50;100745.09;5076648;28;51516;-44
2022/02/15 00:33:52;;;;;;;;;2.50;2.50;;;;;20.50;35.23;100752.72;5077350;28;51511;-43
2022/02/15 00:36:17;;;;;;;;;2.25;2.00;;;;;20.50;35.07;100758.22;5077497;27;51300;-46
2022/02/15 00:38:43;;;;;;;;;3.00;2.75;;;;;20.49;35.27;100770.31;5093011;27;52075;-42
2022/02/15 00:41:08;;;;;;;;;4.00;2.75;;;;;20.46;35.17;100760.59;5076046;28;51100;-45
2022/02/15 00:43:34;;;;;;;;;1.75;1.00;;;;;20.44;35.37;100763.59;5076006;28;51159;-44
2022/02/15 00:45:59;;;;;;;;;4.00;2.00;;;;;20.44;35.45;100771.84;5077494;27;51143;-46
2022/02/15 00:48:25;;;;;;;;;2.00;2.00;;;;;20.43;35.19;100767.41;5077071;28;51056;-48
2022/02/15 00:50:50;;;;;;;;;2.00;2.00;;;;;20.42;35.22;100773.06;5076501;27;51207;-44
2022/02/15 00:53:15;;;;;;;;;3.00;2.00;;;;;20.41;35.18;100768.63;5077342;27;50977;-43
2022/02/15 00:55:42;;;;;;;;;1.00;1.00;;;;;20.39;35.18;100774.38;5076006;28;51122;-45
2022/02/15 00:58:07;;;;;;;;;4.00;2.00;;;;;20.39;35.39;100777.13;5076071;27;52756;-44
2022/02/15 01:00:33;;;;;;;;;3.00;1.00;;;;;20.39;35.47;100785.38;5075307;27;51091;-46
2022/02/15 01:02:58;;;;;;;;;1.50;1.25;;;;;20.37;35.58;100789.41;5076682;27;51140;-44
2022/02/15 01:05:24;;;;;;;;;2.00;1.25;;;;;20.36;35.55;100799.59;5076858;27;50870;-45
2022/02/15 01:07:50;;;;;;;;;2.50;2.50;;;;;20.35;35.57;100799.81;5076549;27;51704;-47
2022/02/15 01:10:16;;;;;;;;;3.50;1.00;;;;;20.35;35.29;100797.06;5077052;27;51108;-44
2022/02/15 01:12:42;;;;;;;;;0.75;0.75;;;;;20.34;35.32;100798.13;5076872;27;51046;-44
2022/02/15 01:15:08;;;;;;;;;1.50;1.50;;;;;20.33;35.31;100805.53;5076823;27;50996;-48
2022/02/15 01:17:33;;;;;;;;;2.00;2.00;;;;;20.32;35.44;100803.84;5076472;27;51159;-45
2022/02/15 01:19:59;;;;;;;;;1.75;1.00;;;;;20.32;35.40;100808.47;5076025;28;51167;-44
2022/02/15 01:22:24;;;;;;;;;1.00;1.00;;;;;20.30;35.34;100814.22;5076949;27;51325;-49
2022/02/15 01:24:49;;;;;;;;;2.50;1.50;;;;;20.30;35.53;100810.63;5077026;27;51113;-46
2022/02/15 01:27:15;;;;;;;;;1.25;1.25;;;;;20.29;35.43;100811.69;5076071;27;51957;-48
2022/02/15 01:29:40;;;;;;;;;1.00;1.00;;;;;20.27;35.64;100822.06;5076400;27;51670;-48
2022/02/15 01:32:06;;;;;;;;;0.50;0.50;;;;;20.26;35.71;100821.22;5076417;27;51200;-46
2022/02/15 01:34:31;;;;;;;;;2.00;2.00;;;;;20.25;35.42;100814.06;5076136;27;51451;-44
2022/02/15 01:36:57;;;;;;;;;1.00;1.00;;;;;20.25;35.38;100821.47;5076491;27;51248;-47
2022/02/15 01:39:22;;;;;;;;;1.00;1.00;;;;;20.24;35.59;100817.03;5076963;27;51012;-46
2022/02/15 01:41:48;;;;;;;;;1.00;1.00;;;;;20.23;35.68;100824.44;5076283;27;51145;-44
2022/02/15 01:44:16;;;;;;;;;1.25;1.00;;;;;20.22;35.72;100831.00;5076604;27;51183;-45
2022/02/15 01:46:42;;;;;;;;;2.25;2.25;;;;;20.21;35.27;100832.03;5074179;28;52074;-47
2022/02/15 01:49:07;;;;;;;;;1.00;1.00;;;;;20.22;35.39;100830.13;5076572;27;51086;-47
2022/02/15 01:51:33;;;;;;;;;1.00;1.00;;;;;20.19;35.58;100835.00;5076077;28;51166;-45
2022/02/15 01:53:58;;;;;;;;;0.00;0.00;;;;;20.19;35.70;100835.00;5075365;28;50978;-44
2022/02/15 01:56:26;;;;;;;;;2.00;1.00;;;;;20.18;35.69;100836.09;5076075;27;51111;-45
2022/02/15 01:58:51;;;;;;;;;1.50;1.50;;;;;20.18;35.72;100840.75;5076085;27;51334;-43
2022/02/15 02:01:17;;;;;;;;;1.00;1.00;;;;;20.17;35.47;100845.41;5076187;27;51231;-47
2022/02/15 02:03:42;;;;;;;;;0.50;0.50;;;;;20.18;35.37;100855.34;5076412;27;51005;-49
2022/02/15 02:06:07;;;;;;;;;1.00;1.00;;;;;20.18;35.41;100857.25;5075756;27;51107;-47
2022/02/15 02:08:34;;;;;;;;;1.25;1.00;;;;;20.16;35.41;100853.88;5075735;27;50961;-47
2022/02/15 02:11:00;;;;;;;;;3.00;1.00;;;;;20.15;35.61;100857.69;5075949;27;51183;-43
2022/02/15 02:13:27;;;;;;;;;2.00;1.00;;;;;20.15;35.56;100858.53;5076228;27;51370;-45
2022/02/15 02:15:52;;;;;;;;;2.75;1.00;;;;;20.14;35.63;100873.34;5075639;27;51292;-46
2022/02/15 02:18:19;;;;;;;;;0.00;0.00;;;;;20.13;35.71;100859.81;5075928;27;51752;-45
2022/02/15 02:20:45;;;;;;;;;1.00;1.00;;;;;20.12;35.65;100864.50;5076067;27;51132;-47
2022/02/15 02:23:19;;;;;;;;;0.75;0.75;;;;;20.13;35.52;100873.56;5075799;27;51128;-48
2022/02/15 02:25:45;;;;;;;;;2.75;1.00;;;;;20.11;35.60;100873.81;5075099;27;52012;-45
2022/02/15 02:28:11;;;;;;;;;2.00;2.00;;;;;20.10;35.72;100877.59;5075410;27;51029;-44
2022/02/15 02:30:37;;;;;;;;;0.50;0.50;;;;;20.10;35.64;100880.34;5075755;27;51375;-46
2022/02/15 02:33:03;;;;;;;;;1.00;1.00;;;;;20.10;35.44;100874.00;5075982;27;50949;-44
2022/02/15 02:35:28;;;;;;;;;1.50;0.00;;;;;20.09;35.89;100875.06;5075218;27;52776;-44
2022/02/15 02:37:54;;;;;;;;;0.75;0.75;;;;;20.09;35.79;100877.81;5075938;27;51012;-44
2022/02/15 02:40:19;;;;;;;;;0.75;0.75;;;;;20.08;35.45;100876.97;5075635;27;51506;-49
2022/02/15 02:42:45;;;;;;;;;3.25;2.00;;;;;20.08;35.41;100885.22;5073491;28;51036;-43
2022/02/15 02:45:18;;;;;;;;;0.00;0.00;;;;;20.07;35.84;100882.69;5075289;27;51800;-43
2022/02/15 02:47:49;;;;;;;;;0.25;0.25;;;;;20.07;35.94;100889.03;5075754;27;51062;-46
2022/02/15 02:50:17;;;;;;;;;2.75;0.75;;;;;20.07;35.57;100889.03;5074820;27;51091;-44
2022/02/15 02:52:44;;;;;;;;;1.00;1.00;;;;;20.06;35.88;100898.34;5067607;28;51326;-44
2022/02/15 02:55:10;;;;;;;;;0.00;0.00;;;;;20.07;35.68;100896.44;5075394;28;51110;-43
2022/02/15 02:57:35;;;;;;;;;0.75;0.75;;;;;20.06;35.84;100898.34;5075128;27;52010;-44
2022/02/15 03:00:07;;;;;;;;;0.00;0.00;;;;;20.05;35.60;100901.31;5075584;27;51403;-45
2022/02/15 03:02:32;;;;;;;;;0.00;0.00;;;;;20.04;35.82;100899.63;5075278;27;51111;-45
2022/02/15 03:04:58;;;;;;;;;1.25;1.00;;;;;20.04;35.57;100899.63;5074813;27;51799;-47
2022/02/15 03:07:23;;;;;;;;;0.00;0.00;;;;;20.03;35.68;100906.19;5074900;27;51140;-44
2022/02/15 03:09:49;;;;;;;;;0.75;0.75;;;;;20.02;35.62;100910.84;5075279;27;51175;-45
2022/02/15 03:12:15;;;;;;;;;0.00;0.00;;;;;20.01;35.48;100917.41;5075224;27;51147;-48
2022/02/15 03:14:41;;;;;;;;;0.00;0.00;;;;;20.00;36.11;100921.19;5074641;27;51141;-43
2022/02/15 03:17:07;;;;;;;;;4.75;0.25;;;;;20.00;35.94;100926.69;5075149;27;51389;-45
2022/02/15 03:19:32;;;;;;;;;1.00;1.00;;;;;20.00;35.86;100937.69;5075208;27;51232;-44
2022/02/15 03:21:59;;;;;;;;;0.00;0.00;;;;;19.99;35.87;100936.00;5075089;27;51127;-48
2022/02/15 03:24:24;;;;;;;;;0.00;0.00;;;;;19.99;35.41;100943.41;5074906;27;51716;-45
2022/02/15 03:26:50;;;;;;;;;1.00;0.00;;;;;19.98;35.65;100950.81;5074891;27;51163;-46
2022/02/15 03:29:15;;;;;;;;;0.50;0.00;;;;;19.97;35.75;100954.63;5074630;27;51674;-43
2022/02/15 03:31:41;;;;;;;;;1.00;1.00;;;;;19.97;35.64;100960.13;5074879;27;51009;-47
2022/02/15 03:34:06;;;;;;;;;0.00;0.00;;;;;19.96;35.73;100960.34;5074536;28;51946;-43
2022/02/15 03:36:32;;;;;;;;;0.00;0.00;;;;;19.96;35.61;100968.59;5075903;27;51061;-43
2022/02/15 03:38:58;;;;;;;;;1.00;1.00;;;;;19.95;35.61;100967.75;5078807;27;51274;-43
2022/02/15 03:44:07;;;;;;;;;0.50;0.50;;;;;19.93;35.91;100978.13;5071705;28;51269;-44
2022/02/15 03:46:32;;;;;;;;;1.00;0.00;;;;;19.93;35.99;100988.28;5077943;27;51023;-43
2022/02/15 03:48:57;;;;;;;;;0.00;0.00;;;;;19.92;35.96;100987.44;5078291;27;51037;-45
2022/02/15 03:51:23;;;;;;;;;0.75;0.75;;;;;19.93;35.77;100988.28;5078333;27;51088;-49
2022/02/15 03:53:49;;;;;;;;;0.00;0.00;;;;;19.90;35.76;100992.28;5078140;27;51089;-48
2022/02/15 03:56:14;;;;;;;;;2.00;0.25;;;;;19.90;35.95;100995.03;5078097;27;50987;-44
2022/02/15 03:58:40;;;;;;;;;0.00;0.00;;;;;19.88;35.78;101003.50;5078150;27;51175;-46
2022/02/15 04:01:06;;;;;;;;;2.00;0.00;;;;;19.88;35.70;101009.00;5078188;27;51148;-47
2022/02/15 04:03:31;;;;;;;;;0.00;0.00;;;;;19.87;35.70;101010.06;5077634;27;52709;-46
2022/02/15 04:05:57;;;;;;;;;0.75;0.00;;;;;19.89;35.93;101012.59;5077915;27;51199;-48
2022/02/15 04:08:23;;;;;;;;;2.00;0.00;;;;;19.87;35.93;101017.47;5078249;27;51191;-43
2022/02/15 04:10:49;;;;;;;;;1.00;0.00;;;;;19.87;35.77;101026.56;5078075;27;51217;-43
2022/02/15 04:13:15;;;;;;;;;0.00;0.00;;;;;19.87;35.68;101028.47;5077430;27;51097;-44
2022/02/15 04:15:40;;;;;;;;;0.00;0.00;;;;;19.86;35.74;101026.78;5077746;27;51384;-46
2022/02/15 04:18:05;;;;;;;;;0.00;0.00;;;;;19.86;35.88;101035.03;5077592;27;51070;-46
2022/02/15 04:20:31;;;;;;;;;0.50;0.50;;;;;19.84;35.82;101046.25;5077862;27;51370;-49
2022/02/15 04:22:56;;;;;;;;;1.00;0.00;;;;;19.84;35.81;101042.66;5077445;27;51865;-47
2022/02/15 04:25:22;;;;;;;;;0.00;0.00;;;;;19.83;35.70;101051.97;5077488;27;51070;-44
2022/02/15 04:27:47;;;;;;;;;0.25;0.25;;;;;19.83;35.81;101054.72;5077736;27;51152;-44
2022/02/15 04:30:13;;;;;;;;;0.00;0.00;;;;;19.82;35.51;101066.78;5077383;27;50973;-47
2022/02/15 04:32:38;;;;;;;;;0.00;0.00;;;;;19.81;35.87;101071.44;5077010;28;50933;-45
2022/02/15 04:35:04;;;;;;;;;0.25;0.25;;;;;19.81;35.79;101065.94;5077565;27;51059;-47
2022/02/15 04:37:29;;;;;;;;;0.25;0.25;;;;;19.81;35.68;101073.31;5069196;28;50997;-48
2022/02/15 04:39:54;;;;;;;;;0.75;0.00;;;;;19.79;35.65;101081.75;5078010;27;51231;-46
2022/02/15 04:42:20;;;;;;;;;1.00;1.00;;;;;19.79;35.92;101081.75;5076968;27;51787;-45
2022/02/15 04:44:45;;;;;;;;;0.00;0.00;;;;;19.77;35.40;101075.63;5076118;28;50993;-45
2022/02/15 04:47:10;;;;;;;;;0.50;0.00;;;;;19.77;35.53;101086.63;5077159;27;51221;-48
2022/02/15 04:49:36;;;;;;;;;1.25;1.00;;;;;19.77;35.97;101083.88;5076968;27;51349;-44
2022/02/15 04:52:01;;;;;;;;;0.25;0.25;;;;;19.77;36.01;101085.78;5076777;27;51766;-43
2022/02/15 04:54:27;;;;;;;;;0.00;0.00;;;;;19.77;35.53;101091.28;5077363;27;50962;-44
2022/02/15 04:56:53;;;;;;;;;0.00;0.00;;;;;19.76;35.55;101097.84;5077485;27;51172;-44
2022/02/15 04:59:19;;;;;;;;;1.50;0.00;;;;;19.76;35.74;101097.84;5077264;27;51120;-44
2022/02/15 05:01:45;;;;;;;;;0.00;0.00;;;;;19.74;35.69;101098.06;5076952;27;51035;-44
2022/02/15 05:04:58;;;;;;;;;0.00;0.00;;;;;19.73;35.86;101101.03;5076292;28;51029;-44
2022/02/15 05:07:00;;;;;;;;;0.00;0.00;;;;;19.72;35.87;101105.66;5067729;27;51113;-44
2022/02/15 05:09:27;;;;;;;;;4.00;0.00;;;;;19.73;35.93;101107.38;5077317;27;51251;-45
2022/02/15 05:11:52;;;;;;;;;0.75;0.00;;;;;19.73;35.94;101112.00;5076617;27;52531;-44
2022/02/15 05:14:18;;;;;;;;;1.00;0.00;;;;;19.73;35.87;101112.00;5077023;27;51005;-46
2022/02/15 05:16:43;;;;;;;;;0.00;0.00;;;;;19.72;35.79;101113.06;5076887;27;51043;-44
2022/02/15 05:19:08;;;;;;;;;2.50;0.50;;;;;19.70;35.56;101118.78;5076365;27;51151;-44
2022/02/15 05:21:34;;;;;;;;;0.25;0.25;;;;;19.70;35.71;101110.53;5076263;27;51059;-45
2022/02/15 05:23:59;;;;;;;;;1.50;1.00;;;;;19.69;35.68;101114.31;5076676;28;51141;-43
2022/02/15 05:26:25;;;;;;;;;0.00;0.00;;;;;19.69;36.04;101118.97;5076898;27;51267;-46
2022/02/15 05:28:51;;;;;;;;;0.00;0.00;;;;;19.68;36.01;101117.28;5076806;27;51196;-46
2022/02/15 05:31:16;;;;;;;;;0.00;0.00;;;;;19.68;35.96;101114.53;5075105;28;52392;-47
2022/02/15 05:33:42;;;;;;;;;0.00;0.00;;;;;19.68;35.63;101120.03;5076340;27;51081;-44
2022/02/15 05:36:07;;;;;;;;;0.50;0.00;;;;;19.67;35.72;101121.09;5076198;27;51091;-43
2022/02/15 05:38:32;;;;;;;;;0.00;0.00;;;;;19.64;35.75;101116.88;5076530;27;50970;-44
2022/02/15 05:40:58;;;;;;;;;0.25;0.25;;;;;19.65;35.86;101126.81;5076399;27;50948;-45
2022/02/15 05:43:23;;;;;;;;;1.00;0.00;;;;;19.64;35.57;101121.53;5076621;27;51066;-44
2022/02/15 05:45:48;;;;;;;;;0.00;0.00;;;;;19.64;35.70;101116.03;5076597;28;51137;-44
2022/02/15 05:48:14;;;;;;;;;0.00;0.00;;;;;19.63;35.77;101120.66;5076373;27;50931;-44
2022/02/15 05:50:52;;;;;;;;;0.00;0.00;;;;;19.63;35.79;101123.41;5075200;27;51059;-43
2022/02/15 05:53:24;;;;;;;;;0.00;0.00;;;;;19.62;35.86;101121.72;5076084;27;51156;-44
2022/02/15 05:55:52;;;;;;;;;0.00;0.00;;;;;19.62;35.92;101129.97;5076168;28;51158;-43
2022/02/15 05:58:21;;;;;;;;;0.00;0.00;;;;;19.62;35.58;101118.97;5076541;27;51103;-44
2022/02/15 06:00:47;;;;;;;;;0.50;0.00;;;;;19.60;35.75;101121.94;5074094;27;52050;-48
2022/02/15 06:05:56;;;;;;;;;3.75;1.00;;;;;19.55;35.18;101131.81;5076080;28;51171;-47
2022/02/15 06:08:21;;;;;;;;;3.25;2.00;;;;;19.49;34.80;101132.69;5076403;28;50961;-46
2022/02/15 06:10:47;;;;;;;;;1.00;1.00;;;;;19.44;34.75;101137.94;5075481;27;51295;-48
2022/02/15 06:13:13;;;;;;;;;3.50;1.00;;;;;19.39;34.56;101143.22;5075744;27;51066;-48
2022/02/15 06:15:39;;;;;;;;;1.50;1.50;;;;;19.31;34.25;101147.84;5075825;27;51094;-47
2022/02/15 06:18:04;;;;;;;;;3.25;1.50;;;;;19.24;34.54;101151.63;5075812;28;51272;-48
2022/02/15 06:20:29;;;;;;;;;2.25;2.25;;;;;19.17;34.25;101153.50;5075379;27;51114;-46
2022/02/15 06:22:55;;;;;;;;;2.00;2.00;;;;;19.11;34.24;101162.56;5076031;27;50957;-48
2022/02/15 06:25:21;;;;;;;;;2.00;1.00;;;;;19.03;34.45;101167.19;5075227;27;51071;-45
2022/02/15 06:27:46;;;;;;;;;6.00;2.00;;;;;18.96;34.12;101163.53;5075689;27;51052;-45
2022/02/15 06:30:12;;;;;;;;;1.00;0.50;;;;;18.91;34.36;101157.84;5075234;27;51713;-45
2022/02/15 06:32:37;;;;;;;;;1.50;1.50;;;;;18.88;34.34;101163.75;5075109;27;51450;-44
2022/02/15 06:35:03;;;;;;;;;1.00;0.75;;;;;18.89;34.72;101157.19;5074959;27;51092;-46
2022/02/15 06:37:28;;;;;;;;;2.00;1.00;;;;;18.93;34.80;101168.59;5075838;27;51137;-45
2022/02/15 06:39:53;;;;;;;;;1.00;1.00;;;;;19.00;34.73;101166.75;5065850;28;54096;-43
2022/02/15 06:42:21;;;;;;;;;1.00;1.00;;;;;19.09;34.73;101171.00;5075825;27;51203;-48
2022/02/15 06:44:46;;;;;;;;;2.25;1.50;;;;;19.19;34.99;101174.22;5075046;27;51050;-44
2022/02/15 06:47:11;;;;;;;;;0.75;0.75;;;;;19.28;34.76;101173.00;5075484;27;51382;-44
2022/02/15 06:49:37;;;;;;;;;1.50;0.00;;;;;19.38;34.74;101182.72;5075081;27;51780;-46
2022/02/15 06:52:02;;;;;;;;;1.00;1.00;;;;;19.46;34.66;101177.03;5073705;27;51059;-47
2022/02/15 06:54:28;;;;;;;;;1.00;1.00;;;;;19.54;34.61;101191.44;5075109;27;51089;-45
2022/02/15 06:56:54;;;;;;;;;1.00;0.00;;;;;19.64;34.67;101191.06;5075137;27;51262;-46
2022/02/15 06:59:19;;;;;;;;;2.00;0.50;;;;;19.73;34.34;101194.47;5074031;28;53933;-45
2022/02/15 07:01:45;;;;;;;;;2.50;2.00;;;;;19.80;34.72;101187.94;5075192;27;51788;-45
2022/02/15 07:04:11;;;;;;;;;0.75;0.75;;;;;19.89;34.77;101194.06;5074774;27;51234;-43
2022/02/15 07:06:37;;;;;;;;;1.75;1.75;;;;;19.97;34.79;101204.00;5075190;27;51080;-45
2022/02/15 07:09:03;;;;;;;;;1.00;1.00;;;;;20.04;34.77;101211.22;5074991;27;52334;-47
2022/02/15 07:11:28;;;;;;;;;3.00;2.25;;;;;20.11;35.36;101214.81;5076202;27;51229;-45
2022/02/15 07:13:53;;;;;;;;;3.50;1.25;;;;;20.18;34.83;101214.81;5078427;27;51017;-44
2022/02/15 07:16:19;;;;;;;;;3.00;2.00;;;;;20.23;35.08;101222.44;5078999;27;51283;-44
2022/02/15 07:18:44;;;;;;;;;1.00;1.00;;;;;20.27;35.15;101212.69;5078201;27;52552;-45
2022/02/15 07:21:10;;;;;;;;;1.00;0.75;;;;;20.29;35.01;101219.69;5076464;27;51154;-45
2022/02/15 07:23:35;;;;;;;;;1.25;1.25;;;;;20.32;35.13;101223.91;5077870;27;51140;-43
2022/02/15 07:26:01;;;;;;;;;2.75;1.50;;;;;20.35;34.66;101226.25;5078229;27;51431;-44
2022/02/15 07:28:28;;;;;;;;;2.00;1.25;;;;;20.37;34.89;101227.72;5077762;28;51768;-45
2022/02/15 07:30:54;;;;;;;;;2.00;1.00;;;;;20.40;34.43;101226.44;5077968;27;51416;-44
2022/02/15 07:33:19;;;;;;;;;2.25;1.50;;;;;20.44;34.78;101230.50;5077856;27;51171;-43
2022/02/15 07:35:45;;;;;;;;;2.00;2.00;;;;;20.45;34.58;101229.44;5077855;27;51262;-45
2022/02/15 07:38:10;;;;;;;;;2.00;1.00;;;;;20.51;34.29;101231.34;5077300;27;51217;-44
2022/02/15 07:40:35;;;;;;;;;1.00;1.00;;;;;20.54;34.58;101230.94;5077763;27;51162;-44
2022/02/15 07:43:01;;;;;;;;;2.50;2.00;;;;;20.57;34.68;101236.00;5076271;27;51370;-43
2022/02/15 07:45:26;;;;;;;;;1.25;1.25;;;;;20.57;34.80;101224.97;5077399;27;51120;-43
2022/02/15 07:47:53;;;;;;;;;3.50;2.25;;;;;20.56;34.30;101233.47;5077159;27;51785;-44
2022/02/15 07:50:20;;;;;;;;;6.00;4.00;;;;;20.54;34.24;101239.19;5078051;27;51119;-43
2022/02/15 07:52:47;;;;;;;;;3.75;2.00;;;;;20.51;34.72;101236.84;5078349;27;51239;-44
2022/02/15 07:55:13;;;;;;;;;2.00;2.00;;;;;20.47;34.60;101241.09;5094177;27;51168;-43
2022/02/15 07:57:39;;;;;;;;;2.75;2.75;;;;;20.43;34.68;101242.59;5077895;27;51599;-44
2022/02/15 08:00:05;;;;;;;;;2.00;1.75;;;;;20.39;34.59;101249.50;5077889;27;51052;-48
2022/02/15 08:02:31;;;;;;;;;2.00;2.00;;;;;20.35;34.66;101249.09;5077555;27;51465;-43
2022/02/15 08:04:56;;;;;;;;;2.50;2.50;;;;;20.32;34.49;101246.78;5078241;28;51264;-46
2022/02/15 08:07:22;;;;;;;;;5.50;2.75;;;;;20.29;34.73;101249.09;5077250;27;51100;-44
2022/02/15 08:09:47;;;;;;;;;2.25;2.25;;;;;20.26;34.45;101264.13;5076540;28;51054;-44
2022/02/15 08:12:17;;;;;;;;;2.25;0.50;;;;;20.23;34.70;101266.47;5076540;27;51286;-46
2022/02/15 08:14:43;;;;;;;;;2.25;2.25;;;;;20.22;34.67;101275.75;5077497;27;51328;-44
2022/02/15 08:17:09;;;;;;;;;1.00;1.00;;;;;20.18;34.90;101273.41;5075142;27;52107;-48
2022/02/15 08:19:34;;;;;;;;;1.50;1.50;;;;;20.17;34.19;101277.22;5076204;27;50902;-44
2022/02/15 08:21:59;;;;;;;;;5.00;1.25;;;;;20.14;34.74;101274.91;5072211;27;51133;-45
2022/02/15 08:24:27;;;;;;;;;4.50;3.00;;;;;20.12;34.61;101277.03;5073748;27;51026;-46
2022/02/15 08:26:53;;;;;;;;;1.75;1.75;;;;;20.09;34.77;101274.66;5075634;27;52524;-46
2022/02/15 08:29:18;;;;;;;;;2.25;1.75;;;;;20.06;34.88;101283.34;5076046;27;51113;-45
2022/02/15 08:31:44;;;;;;;;;1.75;1.75;;;;;20.05;34.81;101280.81;5073531;27;51387;-45
2022/02/15 08:34:09;;;;;;;;;2.25;1.75;;;;;20.02;34.73;101287.59;5075426;27;51127;-48
2022/02/15 08:36:35;;;;;;;;;3.75;3.00;;;;;20.00;34.61;101303.41;5075532;27;51696;-48
2022/02/15 08:39:00;;;;;;;;;2.50;2.50;;;;;19.99;34.85;101303.63;5076173;28;50990;-50
2022/02/15 08:41:26;;;;;;;;;1.75;1.00;;;;;19.97;34.78;101312.09;5075886;27;51412;-45
2022/02/15 08:43:51;;;;;;;;;2.50;2.00;;;;;19.94;34.56;101306.19;5076351;27;51172;-45
2022/02/15 08:46:16;;;;;;;;;1.00;1.00;;;;;19.91;34.76;101295.59;5074474;27;51040;-44
2022/02/15 08:48:42;;;;;;;;;1.75;1.75;;;;;19.90;34.87;101300.22;5075472;27;51079;-45
2022/02/15 08:51:07;;;;;;;;;3.25;2.00;;;;;19.87;35.16;101301.50;5076240;27;50893;-45
2022/02/15 08:53:33;;;;;;;;;4.25;1.50;;;;;19.85;34.68;101302.75;5075308;27;51443;-47
2022/02/15 08:55:58;;;;;;;;;1.25;1.25;;;;;19.84;35.12;101301.91;5075579;27;50976;-45
2022/02/15 08:58:23;;;;;;;;;2.50;2.00;;;;;19.83;34.86;101300.22;5072992;28;51201;-47
2022/02/15 09:00:49;;;;;;;;;1.50;1.50;;;;;19.81;34.79;101291.34;5069107;27;51212;-47
2022/02/15 09:03:14;;;;;;;;;3.00;3.00;;;;;19.79;34.99;101293.44;5076027;27;51062;-49
2022/02/15 09:05:40;;;;;;;;;4.50;2.25;;;;;19.78;34.56;101299.13;5075146;27;52697;-45
2022/02/15 09:08:06;;;;;;;;;1.00;1.00;;;;;19.77;34.94;101297.44;5091217;27;51532;-45
2022/02/15 09:10:31;;;;;;;;;1.50;1.50;;;;;19.75;34.77;101286.66;5076038;27;51535;-47
2022/02/15 09:12:56;;;;;;;;;1.50;0.00;;;;;19.73;34.79;101282.44;5075615;27;51083;-48
2022/02/15 09:15:22;;;;;;;;;3.25;1.50;;;;;19.73;34.98;101263.19;5075793;27;51784;-46
2022/02/15 09:17:48;;;;;;;;;2.25;1.00;;;;;19.71;35.06;101270.81;5073587;27;51047;-44
2022/02/15 09:20:13;;;;;;;;;2.50;1.00;;;;;19.69;35.18;101270.97;5075476;27;51158;-48
2022/02/15 09:22:40;;;;;;;;;2.50;2.50;;;;;19.68;34.92;101265.69;5075439;27;51087;-43
2022/02/15 09:25:06;;;;;;;;;2.00;2.00;;;;;19.68;34.88;101271.19;5075350;27;51332;-47
2022/02/15 09:27:32;;;;;;;;;2.50;2.50;;;;;19.67;34.47;101273.09;5073968;27;51104;-49
2022/02/15 09:29:57;;;;;;;;;2.50;2.00;;;;;19.67;34.96;101275.84;5072763;28;51327;-47
2022/02/15 09:32:23;;;;;;;;;5.00;2.25;;;;;19.67;35.02;101280.50;5075123;27;51251;-47
2022/02/15 09:34:48;;;;;;;;;2.00;2.00;;;;;19.67;34.94;101277.75;5074952;27;51781;-45
2022/02/15 09:37:14;;;;;;;;;3.25;2.00;;;;;19.68;34.88;101290.44;5073927;28;51040;-46
2022/02/15 09:39:39;;;;;;;;;2.00;0.50;;;;;19.68;34.83;101296.78;5075885;27;51025;-45
2022/02/15 09:42:05;;;;;;;;;1.00;1.00;;;;;19.69;34.80;101287.47;5075752;27;51181;-43
2022/02/15 09:44:30;;;;;;;;;3.00;2.00;;;;;19.71;34.87;101293.63;5075035;27;51291;-45
2022/02/15 09:46:55;;;;;;;;;1.50;1.50;;;;;19.74;34.75;101287.72;5074906;27;51088;-48
2022/02/15 09:52:11;;;;;;;;;4.00;2.25;;;;;19.79;34.67;101293.44;5075047;27;51122;-45
2022/02/15 09:54:39;;;;;;;;;0.75;0.50;;;;;19.82;34.69;101286.69;5074499;28;51068;-44
2022/02/15 09:57:04;;;;;;;;;2.50;1.75;;;;;19.85;34.94;101278.03;5074990;27;51288;-47
2022/02/15 09:59:29;;;;;;;;;1.50;1.25;;;;;19.88;34.63;101280.34;5075333;27;51320;-47
2022/02/15 10:01:55;;;;;;;;;2.00;2.00;;;;;19.89;34.91;101282.88;5074741;27;51063;-48
2022/02/15 10:04:33;;;;;;;;;3.75;2.00;;;;;19.92;34.65;101286.28;5075075;27;51734;-46
2022/02/15 10:07:01;;;;;;;;;1.50;1.50;;;;;19.94;34.86;101297.94;5074600;27;51470;-44
2022/02/15 10:09:28;;;;;;;;;1.75;1.00;;;;;19.95;34.34;101303.22;5075289;27;51052;-45
2022/02/15 10:12:05;;;;;;;;;2.50;2.50;;;;;19.96;34.65;101293.91;5075127;27;50997;-46
2022/02/15 10:14:31;;;;;;;;;2.00;2.00;;;;;19.97;34.80;101287.34;5066546;28;52150;-48
2022/02/15 10:16:57;;;;;;;;;2.25;2.00;;;;;19.99;34.78;101287.97;5073888;27;51514;-47
2022/02/15 10:19:27;;;;;;;;;3.25;3.25;;;;;19.99;34.96;101285.22;5073569;27;51084;-44
2022/02/15 10:21:59;;;;;;;;;4.25;1.50;;;;;20.01;34.86;101294.16;5074536;27;51266;-44
2022/02/15 10:24:27;;;;;;;;;1.75;1.25;;;;;20.01;34.55;101288.66;5069915;28;51906;-44
2022/02/15 10:26:54;;;;;;;;;5.50;3.00;;;;;20.00;34.60;101295.16;5072722;27;51532;-46
2022/02/15 10:29:21;;;;;;;;;2.00;2.00;;;;;20.00;34.64;101299.81;5073699;27;51029;-45
2022/02/15 10:31:46;;;;;;;;;2.25;2.25;;;;;19.99;34.62;101304.47;5073389;28;51191;-44
2022/02/15 10:34:12;;;;;;;;;4.00;1.25;;;;;19.98;34.60;101313.78;5074156;27;51694;-47
2022/02/15 10:36:37;;;;;;;;;2.00;2.00;;;;;19.97;34.97;101308.50;5072596;28;51126;-45
2022/02/15 10:39:03;;;;;;;;;1.50;1.50;;;;;19.96;34.61;101304.91;5073273;28;51328;-49
2022/02/15 10:41:33;;;;;;;;;1.00;1.00;;;;;19.94;34.74;101301.53;5074125;27;51155;-47
2022/02/15 10:44:00;;;;;;;;;1.75;1.50;;;;;19.93;34.67;101304.47;5073619;27;51801;-47
2022/02/15 10:46:28;;;;;;;;;2.00;2.00;;;;;19.93;34.99;101293.47;5073872;27;51705;-49
2022/02/15 10:48:54;;;;;;;;;2.75;2.75;;;;;19.92;34.60;101283.53;5074335;27;51181;-45
2022/02/15 10:51:20;;;;;;;;;1.50;1.25;;;;;19.92;34.75;101278.88;5073206;27;51303;-48
2022/02/15 10:53:46;;;;;;;;;2.00;2.00;;;;;19.92;34.72;101273.38;5073392;27;52061;-45
2022/02/15 10:56:11;;;;;;;;;1.75;1.25;;;;;19.94;34.70;101273.19;5089999;27;51020;-45
2022/02/15 10:58:37;;;;;;;;;2.75;2.75;;;;;19.95;34.64;101259.22;5073722;27;51159;-46
2022/02/15 11:01:13;;;;;;;;;3.50;2.00;;;;;19.98;34.92;101263.44;5073555;27;51401;-44
2022/02/15 11:03:41;;;;;;;;;1.00;1.00;;;;;20.00;35.14;101272.31;5072368;27;51140;-47
2022/02/15 11:06:08;;;;;;;;;2.00;2.00;;;;;20.00;34.67;101267.66;5073414;27;51330;-45
2022/02/15 11:08:36;;;;;;;;;2.00;0.75;;;;;20.03;34.67;101270.03;5074144;27;51216;-44
2022/02/15 11:11:24;;;;;;;;;3.75;0.25;;;;;20.05;34.80;101261.56;5073861;27;51484;-44
2022/02/15 11:13:50;;;;;;;;;3.50;1.50;;;;;20.06;34.74;101255.84;5073003;27;51799;-44
2022/02/15 11:16:21;;;;;;;;;1.00;1.00;;;;;20.08;34.63;101255.63;5073491;27;51094;-48
2022/02/15 11:18:47;;;;;;;;;1.00;1.00;;;;;20.09;34.47;101249.06;5065251;28;51165;-47
2022/02/15 11:21:21;;;;;;;;;4.00;2.50;;;;;20.09;34.50;101244.41;5073510;27;51177;-46
2022/02/15 11:23:58;;;;;;;;;2.00;2.00;;;;;20.11;34.57;101249.72;5072875;27;51142;-43
2022/02/15 11:26:34;;;;;;;;;2.00;1.75;;;;;20.11;34.62;101241.44;5073373;27;51401;-46
2022/02/15 11:29:00;;;;;;;;;2.50;2.50;;;;;20.10;34.81;101240.59;5073122;27;51107;-46